createdAt,value
2023-02-12T00:00:08.652Z,102747.34
2023-02-12T00:02:38.703Z,102747.06
2023-02-12T00:05:08.755Z,102752.56
2023-02-12T00:07:38.789Z,102754.25
2023-02-12T00:10:09.770Z,102750.22
2023-02-12T00:12:39.850Z,102754.84
2023-02-12T00:15:10.293Z,102751.25
2023-02-12T00:17:40.361Z,102757.41
2023-02-12T00:20:11.615Z,102768.75
2023-02-12T00:22:41.668Z,102776.84
2023-02-12T00:25:13.993Z,102769.78
2023-02-12T00:27:44.018Z,102775.13
2023-02-12T00:30:14.489Z,102770.94
2023-02-12T00:32:47.397Z,102775.28
2023-02-12T00:35:17.495Z,102780.44
2023-02-12T00:37:47.518Z,102776.84
2023-02-12T00:40:15.965Z,102780.91
2023-02-12T00:42:44.420Z,102785.34
2023-02-12T00:45:12.799Z,102784.13
2023-02-12T00:47:41.295Z,102785.66
2023-02-12T00:50:10.293Z,102781.50
2023-02-12T00:52:38.509Z,102783.28
2023-02-12T00:55:09.278Z,102786.88
2023-02-12T00:57:39.258Z,102791.53
2023-02-12T01:00:10.451Z,102792.47
2023-02-12T01:02:40.615Z,102795.22
2023-02-12T01:05:10.788Z,102802.63
2023-02-12T01:07:41.041Z,102809.19
2023-02-12T01:10:12.180Z,102810.56
2023-02-12T01:12:42.556Z,102806.25
2023-02-12T01:15:13.260Z,102805.47
2023-02-12T01:17:43.674Z,102810.31
2023-02-12T01:20:18.096Z,102815.09
2023-02-12T01:22:48.370Z,102814.94
2023-02-12T01:25:20.780Z,102821.03
2023-02-12T01:27:54.590Z,102821.53
2023-02-12T01:30:24.932Z,102813.06
2023-02-12T01:32:55.624Z,102818.88
2023-02-12T01:35:25.710Z,102814.97
2023-02-12T01:37:58.118Z,102817.81
2023-02-12T01:40:28.536Z,102820.78
2023-02-12T01:43:03.053Z,102816.41
2023-02-12T01:45:54.102Z,102815.88
2023-02-12T01:48:33.067Z,102818.91
2023-02-12T01:51:05.360Z,102828.63
2023-02-12T01:53:55.532Z,102833.56
2023-02-12T01:56:26.491Z,102837.19
2023-02-12T01:58:57.831Z,102827.84
2023-02-12T02:01:33.820Z,102831.91
2023-02-12T02:04:23.387Z,102833.16
2023-02-12T02:07:03.170Z,102833.31
2023-02-12T02:09:38.554Z,102831.22
2023-02-12T02:12:30.048Z,102835.16
2023-02-12T02:15:04.936Z,102839.66
2023-02-12T02:17:56.331Z,102840.75
2023-02-12T02:21:09.153Z,102849.22
2023-02-12T02:24:00.198Z,102836.81
2023-02-12T02:27:02.604Z,102841.34
2023-02-12T02:30:09.022Z,102838.22
2023-02-12T02:33:15.573Z,102836.69
2023-02-12T02:36:26.185Z,102838.13
2023-02-12T02:39:54.094Z,102834.16
2023-02-12T02:43:09.761Z,102835.25
2023-02-12T02:45:59.511Z,102838.84
2023-02-12T02:48:50.729Z,102840.28
2023-02-12T02:51:33.261Z,102856.63
2023-02-12T02:54:17.863Z,102840.13
2023-02-12T02:57:03.639Z,102847.91
2023-02-12T02:59:49.924Z,102843.72
2023-02-12T03:02:38.393Z,102852.81
2023-02-12T03:05:26.862Z,102855.31
2023-02-12T03:08:24.379Z,102865.72
2023-02-12T03:11:12.907Z,102868.97
2023-02-12T03:14:26.139Z,102878.63
2023-02-12T03:17:32.593Z,102877.31
2023-02-12T03:20:26.615Z,102878.75
2023-02-12T03:23:11.545Z,102882.22
2023-02-12T03:26:09.803Z,102885.66
2023-02-12T03:28:41.345Z,102890.44
2023-02-12T03:32:06.809Z,102885.19
2023-02-12T03:35:04.510Z,102881.00
2023-02-12T03:37:44.955Z,102886.78
2023-02-12T03:40:37.670Z,102886.34
2023-02-12T03:43:39.280Z,102885.88
2023-02-12T03:46:47.399Z,102897.88
2023-02-12T03:50:03.570Z,102897.88
2023-02-12T03:52:35.237Z,102895.34
2023-02-12T03:55:08.396Z,102899.84
2023-02-12T03:58:01.397Z,102906.78
2023-02-12T04:00:31.555Z,102903.72
2023-02-12T04:03:01.610Z,102902.88
2023-02-12T04:05:31.930Z,102908.00
2023-02-12T04:08:09.166Z,102908.69
2023-02-12T04:11:31.599Z,102910.75
2023-02-12T04:15:13.469Z,102913.50
2023-02-12T04:18:44.019Z,102909.84
2023-02-12T04:21:33.257Z,102918.56
2023-02-12T04:24:44.686Z,102922.97
2023-02-12T04:28:12.041Z,102918.88
2023-02-12T04:31:13.259Z,102927.56
2023-02-12T04:34:26.480Z,102922.53
2023-02-12T04:37:37.739Z,102921.03
2023-02-12T04:40:16.638Z,102919.00
2023-02-12T04:42:52.852Z,102914.94
2023-02-12T04:45:35.191Z,102927.63
2023-02-12T04:48:06.656Z,102920.84
2023-02-12T04:50:43.710Z,102927.09
2023-02-12T04:53:14.258Z,102921.66
2023-02-12T04:55:44.757Z,102916.72
2023-02-12T04:58:14.808Z,102919.22
2023-02-12T05:00:45.358Z,102916.16
2023-02-12T05:03:15.397Z,102923.19
2023-02-12T05:05:45.433Z,102937.38
2023-02-12T05:08:15.426Z,102928.53
2023-02-12T05:10:45.503Z,102932.31
2023-02-12T05:13:15.504Z,102933.47
2023-02-12T05:15:45.541Z,102933.63
2023-02-12T05:18:15.588Z,102936.38
2023-02-12T05:20:45.631Z,102935.75
2023-02-12T05:23:15.608Z,102936.66
2023-02-12T05:25:45.628Z,102936.66
2023-02-12T05:28:15.719Z,102936.09
2023-02-12T05:30:45.907Z,102940.81
2023-02-12T05:33:16.003Z,102936.00
2023-02-12T05:35:46.098Z,102943.66
2023-02-12T05:38:16.098Z,102951.75
2023-02-12T05:40:46.118Z,102951.59
2023-02-12T05:43:16.240Z,102952.63
2023-02-12T05:45:46.256Z,102956.03
2023-02-12T05:48:16.340Z,102955.63
2023-02-12T05:50:46.411Z,102961.59
2023-02-12T05:53:16.433Z,102957.75
2023-02-12T05:55:48.580Z,102958.16
2023-02-12T05:58:18.654Z,102956.03
2023-02-12T06:00:48.757Z,102956.03
2023-02-12T06:03:18.777Z,102956.03
2023-02-12T06:05:54.298Z,102957.97
2023-02-12T06:08:24.607Z,102956.25
2023-02-12T06:10:54.611Z,102967.69
2023-02-12T06:13:25.766Z,102958.44
2023-02-12T06:15:56.229Z,102962.25
2023-02-12T06:18:28.836Z,102969.88
2023-02-12T06:20:58.367Z,102972.16
2023-02-12T06:23:28.461Z,102980.84
2023-02-12T06:25:59.426Z,102984.63
2023-02-12T06:28:27.197Z,102986.53
2023-02-12T06:30:55.623Z,102993.91
2023-02-12T06:33:24.284Z,102997.44
2023-02-12T06:35:52.810Z,103001.22
2023-02-12T06:38:21.635Z,103010.63
2023-02-12T06:40:51.617Z,103014.06
2023-02-12T06:43:21.683Z,103018.66
2023-02-12T06:45:51.755Z,103008.91
2023-02-12T06:48:20.392Z,103013.53
2023-02-12T06:50:50.394Z,103009.28
2023-02-12T06:53:19.116Z,103016.03
2023-02-12T06:55:47.559Z,103024.44
2023-02-12T06:58:15.986Z,103022.13
2023-02-12T07:00:44.539Z,103027.19
2023-02-12T07:03:12.926Z,103042.59
2023-02-12T07:05:41.557Z,103043.69
2023-02-12T07:08:10.241Z,103033.22
2023-02-12T07:10:38.391Z,103047.81
2023-02-12T07:13:06.930Z,103044.47
2023-02-12T07:15:40.628Z,103047.19
2023-02-12T07:18:10.761Z,103055.91
2023-02-12T07:20:39.133Z,103050.81
2023-02-12T07:23:06.492Z,103048.69
2023-02-12T07:25:35.118Z,103052.06
2023-02-12T07:28:03.397Z,103063.25
2023-02-12T07:30:31.825Z,103059.69
2023-02-12T07:33:00.070Z,103062.44
2023-02-12T07:35:28.514Z,103069.63
2023-02-12T07:37:56.887Z,103066.41
2023-02-12T07:40:26.094Z,103066.84
2023-02-12T07:42:57.164Z,103064.72
2023-02-12T07:45:27.422Z,103075.44
2023-02-12T07:47:57.479Z,103068.44
2023-02-12T07:50:27.559Z,103069.06
2023-02-12T07:52:58.336Z,103070.28
2023-02-12T07:55:28.403Z,103073.25
2023-02-12T07:57:58.492Z,103069.44
2023-02-12T08:00:28.555Z,103080.00
2023-02-12T08:02:58.539Z,103073.84
2023-02-12T08:05:28.860Z,103077.16
2023-02-12T08:07:58.861Z,103088.09
2023-02-12T08:10:31.410Z,103089.13
2023-02-12T08:13:02.378Z,103086.53
2023-02-12T08:15:32.409Z,103091.34
2023-02-12T08:18:02.538Z,103094.03
2023-02-12T08:20:34.978Z,103091.25
2023-02-12T08:23:05.185Z,103086.06
2023-02-12T08:25:33.523Z,103097.25
2023-02-12T08:28:02.063Z,103097.66
2023-02-12T08:30:30.553Z,103096.13
2023-02-12T08:32:58.941Z,103096.91
2023-02-12T08:35:27.903Z,103112.09
2023-02-12T08:37:55.957Z,103113.13
2023-02-12T08:40:24.430Z,103109.06
2023-02-12T08:42:53.600Z,103117.09
2023-02-12T08:45:21.380Z,103110.50
2023-02-12T08:47:49.968Z,103119.38
2023-02-12T08:50:19.979Z,103123.06
2023-02-12T08:52:49.987Z,103125.97
2023-02-12T08:55:20.019Z,103131.72
2023-02-12T08:57:50.041Z,103137.44
2023-02-12T09:00:20.925Z,103130.84
2023-02-12T09:02:50.964Z,103139.50
2023-02-12T09:05:21.115Z,103144.56
2023-02-12T09:07:53.863Z,103145.63
2023-02-12T09:10:23.865Z,103147.53
2023-02-12T09:12:53.849Z,103144.94
2023-02-12T09:15:22.413Z,103144.25
2023-02-12T09:17:50.871Z,103149.09
2023-02-12T09:20:20.902Z,103151.84
2023-02-12T09:22:51.008Z,103149.22
2023-02-12T09:25:21.060Z,103153.81
2023-02-12T09:27:51.437Z,103159.88
2023-02-12T09:30:19.818Z,103161.00
2023-02-12T09:32:48.089Z,103158.03
2023-02-12T09:35:17.057Z,103163.22
2023-02-12T09:37:47.140Z,103161.63
2023-02-12T09:40:45.659Z,103160.59
2023-02-12T09:43:55.718Z,103164.47
2023-02-12T09:46:39.686Z,103165.00
2023-02-12T09:49:26.519Z,103164.78
2023-02-12T09:51:59.577Z,103169.78
2023-02-12T09:54:39.821Z,103174.38
2023-02-12T09:57:34.632Z,103180.00
2023-02-12T10:00:11.141Z,103186.00
2023-02-12T10:02:41.731Z,103177.50
2023-02-12T10:05:32.253Z,103180.44
2023-02-12T10:08:48.606Z,103180.56
2023-02-12T10:11:34.452Z,103186.25
2023-02-12T10:14:57.655Z,103174.66
2023-02-12T10:17:50.284Z,103179.09
2023-02-12T10:20:54.980Z,103183.31
2023-02-12T10:24:26.926Z,103172.59
2023-02-12T10:27:14.555Z,103176.06
2023-02-12T10:29:49.354Z,103178.94
2023-02-12T10:32:34.040Z,103182.78
2023-02-12T10:35:17.638Z,103173.97
2023-02-12T10:38:22.701Z,103173.97
2023-02-12T10:40:51.539Z,103169.53
2023-02-12T10:43:19.754Z,103171.81
2023-02-12T10:45:48.998Z,103166.16
2023-02-12T10:48:39.399Z,103165.09
2023-02-12T10:51:09.315Z,103168.22
2023-02-12T10:53:43.844Z,103165.69
2023-02-12T10:56:25.730Z,103165.91
2023-02-12T10:59:01.444Z,103170.06
2023-02-12T11:01:38.857Z,103175.47
2023-02-12T11:04:23.848Z,103170.41
2023-02-12T11:07:09.931Z,103178.56
2023-02-12T11:09:45.829Z,103172.56
2023-02-12T11:12:48.158Z,103174.72
2023-02-12T11:15:26.470Z,103170.06
2023-02-12T11:18:09.205Z,103177.34
2023-02-12T11:20:52.955Z,103164.03
2023-02-12T11:23:45.248Z,103155.50
2023-02-12T11:26:18.325Z,103164.16
2023-02-12T11:29:27.094Z,103153.19
2023-02-12T11:32:12.422Z,103160.06
2023-02-12T11:34:42.670Z,103164.13
2023-02-12T11:37:21.125Z,103160.94
2023-02-12T11:39:51.828Z,103161.91
2023-02-12T11:42:37.533Z,103162.47
2023-02-12T11:45:06.167Z,103160.75
2023-02-12T11:47:40.978Z,103152.72
2023-02-12T11:50:35.056Z,103159.38
2023-02-12T11:53:10.068Z,103157.50
2023-02-12T11:55:41.843Z,103157.34
2023-02-12T11:58:27.454Z,103158.22
2023-02-12T12:01:19.418Z,103151.03
2023-02-12T12:04:17.547Z,103157.06
2023-02-12T12:07:02.446Z,103152.94
2023-02-12T12:10:20.075Z,103141.75
2023-02-12T12:13:25.668Z,103143.84
2023-02-12T12:16:39.113Z,103149.88
2023-02-12T12:20:02.480Z,103147.78
2023-02-12T12:22:43.023Z,103141.28
2023-02-12T12:25:27.609Z,103135.53
2023-02-12T12:28:32.559Z,103140.91
2023-02-12T12:31:26.124Z,103146.25
2023-02-12T12:34:13.515Z,103131.72
2023-02-12T12:37:12.656Z,103128.97
2023-02-12T12:39:54.496Z,103127.31
2023-02-12T12:43:20.996Z,103120.91
2023-02-12T12:46:22.303Z,103115.63
2023-02-12T12:49:38.820Z,103118.41
2023-02-12T12:52:48.849Z,103119.06
2023-02-12T12:55:51.290Z,103117.25
2023-02-12T12:58:58.252Z,103113.56
2023-02-12T13:01:52.308Z,103117.41
2023-02-12T13:04:41.564Z,103114.69
2023-02-12T13:07:41.496Z,103120.53
2023-02-12T13:10:22.530Z,103115.94
2023-02-12T13:13:13.522Z,103109.94
2023-02-12T13:16:41.118Z,103120.38
2023-02-12T13:19:59.476Z,103117.22
2023-02-12T13:23:11.989Z,103124.63
2023-02-12T13:26:13.509Z,103119.41
2023-02-12T13:29:16.719Z,103119.97
2023-02-12T13:32:18.226Z,103118.59
2023-02-12T13:34:50.846Z,103119.47
2023-02-12T13:37:46.595Z,103119.66
2023-02-12T13:40:28.579Z,103122.41
2023-02-12T13:43:41.541Z,103110.63
2023-02-12T13:46:52.465Z,103107.53
2023-02-12T13:49:46.383Z,103106.00
2023-02-12T13:52:52.923Z,103108.28
2023-02-12T13:56:06.096Z,103113.31
2023-02-12T13:58:37.469Z,103103.84
2023-02-12T14:01:33.707Z,103106.03
2023-02-12T14:04:43.587Z,103109.03
2023-02-12T14:07:17.235Z,103112.00
2023-02-12T14:09:50.250Z,103106.63
2023-02-12T14:12:26.343Z,103109.00
2023-02-12T14:15:37.754Z,103108.00
2023-02-12T14:18:35.107Z,103105.94
2023-02-12T14:21:14.010Z,103100.34
2023-02-12T14:23:47.338Z,103100.13
2023-02-12T14:26:23.763Z,103105.44
2023-02-12T14:29:03.180Z,103106.19
2023-02-12T14:31:39.709Z,103106.72
2023-02-12T14:34:09.648Z,103102.03
2023-02-12T14:36:44.736Z,103106.94
2023-02-12T14:39:24.658Z,103105.03
2023-02-12T14:42:18.605Z,103099.75
2023-02-12T14:45:41.382Z,103101.28
2023-02-12T14:49:06.202Z,103102.66
2023-02-12T14:51:50.842Z,103106.84
2023-02-12T14:54:54.918Z,103095.91
2023-02-12T14:57:41.167Z,103104.88
2023-02-12T15:00:16.962Z,103106.63
2023-02-12T15:03:14.599Z,103113.84
2023-02-12T15:06:09.556Z,103107.72
2023-02-12T15:09:01.375Z,103107.03
2023-02-12T15:11:47.214Z,103100.75
2023-02-12T15:14:30.260Z,103104.22
2023-02-12T15:17:30.988Z,103104.50
2023-02-12T15:21:02.279Z,103098.66
2023-02-12T15:23:39.994Z,103104.09
2023-02-12T15:26:24.277Z,103102.31
2023-02-12T15:28:56.542Z,103098.22
2023-02-12T15:31:33.608Z,103105.22
2023-02-12T15:34:05.967Z,103115.22
2023-02-12T15:36:36.506Z,103105.28
2023-02-12T15:39:09.709Z,103106.13
2023-02-12T15:41:41.937Z,103103.00
2023-02-12T15:44:33.305Z,103110.09
2023-02-12T15:47:14.707Z,103109.63
2023-02-12T15:49:44.896Z,103101.72
2023-02-12T15:52:35.803Z,103109.16
2023-02-12T15:55:18.994Z,103104.72
2023-02-12T15:58:00.526Z,103113.38
2023-02-12T16:00:47.788Z,103118.41
2023-02-12T16:03:41.146Z,103120.41
2023-02-12T16:06:16.842Z,103119.44
2023-02-12T16:08:58.640Z,103116.19
2023-02-12T16:11:32.758Z,103116.91
2023-02-12T16:14:46.587Z,103123.38
2023-02-12T16:17:32.887Z,103113.28
2023-02-12T16:20:20.412Z,103115.09
2023-02-12T16:22:52.964Z,103119.03
2023-02-12T16:25:33.559Z,103116.97
2023-02-12T16:28:29.904Z,103128.72
2023-02-12T16:31:15.362Z,103127.13
2023-02-12T16:33:54.108Z,103125.97
2023-02-12T16:36:26.564Z,103125.75
2023-02-12T16:39:08.542Z,103128.88
2023-02-12T16:41:57.575Z,103134.41
2023-02-12T16:44:31.525Z,103139.31
2023-02-12T16:47:02.429Z,103143.78
2023-02-12T16:49:30.332Z,103138.16
2023-02-12T16:52:30.926Z,103126.16
2023-02-12T16:54:58.951Z,103137.69
2023-02-12T16:57:29.193Z,103143.00
2023-02-12T16:59:59.007Z,103146.69
2023-02-12T17:02:28.807Z,103146.69
2023-02-12T17:05:01.017Z,103149.19
2023-02-12T17:07:31.776Z,103147.25
2023-02-12T17:10:03.141Z,103147.34
2023-02-12T17:12:32.260Z,103149.97
2023-02-12T17:15:05.659Z,103143.72
2023-02-12T17:17:35.398Z,103151.38
2023-02-12T17:20:06.481Z,103156.59
2023-02-12T17:22:36.673Z,103160.28
2023-02-12T17:25:06.781Z,103155.31
2023-02-12T17:27:38.152Z,103160.09
2023-02-12T17:30:10.532Z,103163.53
2023-02-12T17:32:39.075Z,103161.91
2023-02-12T17:35:59.875Z,103160.38
2023-02-12T17:38:28.624Z,103171.41
2023-02-12T17:40:57.950Z,103164.06
2023-02-12T18:07:20.937Z,103178.22
2023-02-12T18:09:51.078Z,103176.78
2023-02-12T18:12:21.374Z,103182.91
2023-02-12T18:14:51.364Z,103177.13
2023-02-12T18:17:21.119Z,103183.50
2023-02-12T18:19:51.293Z,103181.59
2023-02-12T18:22:22.899Z,103179.88
2023-02-12T18:24:51.907Z,103178.44
2023-02-12T18:27:21.738Z,103174.47
2023-02-12T18:29:51.983Z,103184.25
2023-02-12T18:32:21.674Z,103181.34
2023-02-12T18:34:52.056Z,103180.34
2023-02-12T18:37:22.052Z,103182.72
2023-02-12T18:39:51.964Z,103190.38
2023-02-12T18:42:22.129Z,103185.53
2023-02-12T18:44:51.806Z,103181.09
2023-02-12T18:47:22.106Z,103177.75
2023-02-12T18:49:51.794Z,103177.13
2023-02-12T18:52:21.647Z,103186.69
2023-02-12T18:54:53.165Z,103172.53
2023-02-12T18:57:22.372Z,103175.06
2023-02-12T18:59:52.234Z,103177.19
2023-02-12T19:02:22.190Z,103181.88
2023-02-12T19:04:51.941Z,103177.63
2023-02-12T19:07:21.883Z,103173.44
2023-02-12T19:09:52.724Z,103182.50
2023-02-12T19:12:22.987Z,103181.47
2023-02-12T19:14:52.811Z,103183.13
2023-02-12T19:17:22.885Z,103175.22
2023-02-12T19:19:52.173Z,103172.03
2023-02-12T19:22:19.883Z,103174.09
2023-02-12T19:24:51.769Z,103170.19
2023-02-12T19:27:19.526Z,103172.00
2023-02-12T19:29:47.827Z,103169.22
2023-02-12T19:32:16.287Z,103167.69
2023-02-12T19:34:46.012Z,103171.28
2023-02-12T19:37:13.947Z,103175.34
2023-02-12T19:39:41.712Z,103171.50
2023-02-12T19:42:17.730Z,103177.38
2023-02-12T19:44:46.705Z,103173.56
2023-02-12T19:47:16.963Z,103178.22
2023-02-12T19:49:46.886Z,103177.75
2023-02-12T19:52:16.745Z,103174.38
2023-02-12T19:54:46.534Z,103179.28
2023-02-12T19:57:16.549Z,103172.72
2023-02-12T19:59:46.561Z,103171.03
2023-02-12T20:02:17.194Z,103169.56
2023-02-12T20:04:47.414Z,103158.34
2023-02-12T20:07:17.486Z,103165.75
2023-02-12T20:09:52.199Z,103160.31
2023-02-12T20:12:22.478Z,103164.16
2023-02-12T20:14:55.856Z,103164.25
2023-02-12T20:17:25.865Z,103170.19
2023-02-12T20:19:55.747Z,103166.81
2023-02-12T20:22:25.642Z,103171.50
2023-02-12T20:24:55.389Z,103163.84
2023-02-12T20:27:25.273Z,103165.47
2023-02-12T20:29:55.180Z,103168.56
2023-02-12T20:32:24.955Z,103166.06
2023-02-12T20:34:54.756Z,103165.47
2023-02-12T20:37:24.620Z,103168.88
2023-02-12T20:39:53.031Z,103172.03
2023-02-12T20:42:21.644Z,103169.50
2023-02-12T20:44:49.909Z,103168.03
2023-02-12T20:47:18.285Z,103166.59
2023-02-12T20:49:46.754Z,103165.16
2023-02-12T20:52:15.194Z,103156.06
2023-02-12T20:54:46.417Z,103163.44
2023-02-12T20:57:17.186Z,103162.72
2023-02-12T20:59:44.895Z,103164.81
2023-02-12T21:02:16.044Z,103160.63
2023-02-12T21:04:43.118Z,103157.56
2023-02-12T21:07:12.021Z,103147.03
2023-02-12T21:09:40.017Z,103145.56
2023-02-12T21:12:12.297Z,103150.81
2023-02-12T21:14:40.137Z,103148.94
2023-02-12T21:17:08.680Z,103148.63
2023-02-12T21:19:37.041Z,103149.91
2023-02-12T21:22:05.245Z,103151.22
2023-02-12T21:24:34.121Z,103159.25
2023-02-12T21:27:02.128Z,103155.31
2023-02-12T21:29:33.225Z,103158.34
2023-02-12T21:32:03.464Z,103153.28
2023-02-12T21:34:33.360Z,103151.97
2023-02-12T21:37:03.373Z,103151.13
2023-02-12T21:39:33.270Z,103148.38
2023-02-12T21:42:05.369Z,103154.72
2023-02-12T21:44:35.683Z,103142.16
2023-02-12T21:47:07.400Z,103146.53
2023-02-12T21:49:36.102Z,103145.47
2023-02-12T21:52:08.705Z,103146.53
2023-02-12T21:54:38.779Z,103147.53
2023-02-12T21:57:07.338Z,103145.59
2023-02-12T21:59:35.702Z,103140.59
2023-02-12T22:02:05.430Z,103142.06
2023-02-12T22:04:32.601Z,103146.59
2023-02-12T22:07:03.491Z,103151.72
2023-02-12T22:09:32.558Z,103142.38
2023-02-12T22:12:00.913Z,103144.50
2023-02-12T22:14:29.579Z,103143.25
2023-02-12T22:16:58.502Z,103144.69
2023-02-12T22:19:26.305Z,103146.44
2023-02-12T22:21:54.753Z,103142.63
2023-02-12T22:24:23.159Z,103140.94
2023-02-12T22:26:51.752Z,103146.00
2023-02-12T22:29:22.093Z,103144.81
2023-02-12T22:31:51.661Z,103146.81
2023-02-12T22:34:20.063Z,103150.63
2023-02-12T22:36:48.932Z,103149.81
2023-02-12T22:39:18.449Z,103149.56
2023-02-12T22:41:49.065Z,103152.56
2023-02-12T22:44:21.101Z,103146.81
2023-02-12T22:46:50.467Z,103140.94
2023-02-12T22:49:19.001Z,103144.91
2023-02-12T22:51:48.641Z,103146.22
2023-02-12T22:54:20.235Z,103148.34
2023-02-12T22:56:52.542Z,103146.00
2023-02-12T22:59:22.201Z,103150.19
2023-02-12T23:01:51.905Z,103157.63
2023-02-12T23:04:22.083Z,103151.50
2023-02-12T23:06:52.544Z,103154.00
2023-02-12T23:09:21.801Z,103154.06
2023-02-12T23:11:51.664Z,103148.78
2023-02-12T23:14:21.818Z,103148.56
2023-02-12T23:16:51.826Z,103153.25
2023-02-12T23:19:21.622Z,103148.94
2023-02-12T23:21:51.428Z,103150.38
2023-02-12T23:24:21.180Z,103145.31
2023-02-12T23:26:51.505Z,103141.63
2023-02-12T23:29:19.661Z,103138.44
2023-02-12T23:31:48.946Z,103137.00
2023-02-12T23:34:17.317Z,103141.63
2023-02-12T23:36:45.572Z,103144.47
2023-02-12T23:39:14.146Z,103147.75
2023-02-12T23:41:42.608Z,103138.41
2023-02-12T23:44:11.239Z,103141.44
2023-02-12T23:46:39.673Z,103127.06
2023-02-12T23:49:08.235Z,103134.94
2023-02-12T23:51:36.207Z,103131.69
2023-02-12T23:54:04.719Z,103131.09
2023-02-12T23:56:33.085Z,103132.16
2023-02-12T23:59:01.437Z,103132.66
